sensor_id;sensor_type;location;lat;lon;timestamp;temperature;humidity
2851;DHT22;1433;49.976;8.342;2023-02-01T00:00:24;6.10;99.90
2851;DHT22;1433;49.976;8.342;2023-02-01T00:02:50;6.10;99.90
2851;DHT22;1433;49.976;8.342;2023-02-01T00:05:17;6.10;99.90
2851;DHT22;1433;49.976;8.342;2023-02-01T00:07:46;6.10;99.90
2851;DHT22;1433;49.976;8.342;2023-02-01T00:10:14;6.00;99.90
2851;DHT22;1433;49.976;8.342;2023-02-01T00:12:40;6.00;99.90
2851;DHT22;1433;49.976;8.342;2023-02-01T00:15:07;6.00;99.90
2851;DHT22;1433;49.976;8.342;2023-02-01T00:17:34;6.00;99.90
2851;DHT22;1433;49.976;8.342;2023-02-01T00:20:00;5.90;99.90
2851;DHT22;1433;49.976;8.342;2023-02-01T00:22:27;5.90;99.90
2851;DHT22;1433;49.976;8.342;2023-02-01T00:24:53;5.80;99.90
2851;DHT22;1433;49.976;8.342;2023-02-01T00:27:19;5.80;99.90
2851;DHT22;1433;49.976;8.342;2023-02-01T00:29:47;5.80;99.90
2851;DHT22;1433;49.976;8.342;2023-02-01T00:32:13;5.70;99.90
2851;DHT22;1433;49.976;8.342;2023-02-01T00:34:40;5.70;99.90
2851;DHT22;1433;49.976;8.342;2023-02-01T00:37:06;5.70;99.90
2851;DHT22;1433;49.976;8.342;2023-02-01T00:39:33;5.70;99.90
2851;DHT22;1433;49.976;8.342;2023-02-01T00:42:00;5.60;99.90
2851;DHT22;1433;49.976;8.342;2023-02-01T00:44:28;5.70;99.90
2851;DHT22;1433;49.976;8.342;2023-02-01T00:46:56;5.70;99.90
2851;DHT22;1433;49.976;8.342;2023-02-01T00:49:22;5.70;99.90
2851;DHT22;1433;49.976;8.342;2023-02-01T00:51:48;5.50;99.90
2851;DHT22;1433;49.976;8.342;2023-02-01T00:54:15;5.80;99.90
2851;DHT22;1433;49.976;8.342;2023-02-01T00:56:41;5.80;99.90
2851;DHT22;1433;49.976;8.342;2023-02-01T00:59:12;5.80;99.90
2851;DHT22;1433;49.976;8.342;2023-02-01T01:01:38;5.80;99.90
2851;DHT22;1433;49.976;8.342;2023-02-01T01:04:05;5.90;99.90
2851;DHT22;1433;49.976;8.342;2023-02-01T01:06:32;5.90;99.90
2851;DHT22;1433;49.976;8.342;2023-02-01T01:09:01;6.00;99.90
2851;DHT22;1433;49.976;8.342;2023-02-01T01:11:36;5.90;99.90
2851;DHT22;1433;49.976;8.342;2023-02-01T01:14:05;5.80;99.90
2851;DHT22;1433;49.976;8.342;2023-02-01T01:16:35;5.70;99.90
2851;DHT22;1433;49.976;8.342;2023-02-01T01:19:01;5.70;99.90
2851;DHT22;1433;49.976;8.342;2023-02-01T01:21:29;5.70;99.90
2851;DHT22;1433;49.976;8.342;2023-02-01T01:23:56;5.70;99.90
2851;DHT22;1433;49.976;8.342;2023-02-01T01:26:24;5.70;99.90
2851;DHT22;1433;49.976;8.342;2023-02-01T01:28:59;5.80;99.90
2851;DHT22;1433;49.976;8.342;2023-02-01T01:31:24;5.80;99.90
2851;DHT22;1433;49.976;8.342;2023-02-01T01:33:52;5.70;99.90
2851;DHT22;1433;49.976;8.342;2023-02-01T01:36:20;5.80;99.90
2851;DHT22;1433;49.976;8.342;2023-02-01T01:38:48;5.80;99.90
2851;DHT22;1433;49.976;8.342;2023-02-01T01:41:18;5.80;99.90
2851;DHT22;1433;49.976;8.342;2023-02-01T01:46:28;5.80;99.90
2851;DHT22;1433;49.976;8.342;2023-02-01T01:48:56;5.80;99.90
2851;DHT22;1433;49.976;8.342;2023-02-01T01:51:27;5.80;99.90
2851;DHT22;1433;49.976;8.342;2023-02-01T01:54:19;5.70;99.90
2851;DHT22;1433;49.976;8.342;2023-02-01T01:56:51;5.60;99.90
2851;DHT22;1433;49.976;8.342;2023-02-01T01:59:21;5.50;99.90
2851;DHT22;1433;49.976;8.342;2023-02-01T02:01:48;5.50;99.90
2851;DHT22;1433;49.976;8.342;2023-02-01T02:04:15;5.50;99.90
2851;DHT22;1433;49.976;8.342;2023-02-01T02:06:54;5.50;99.90
2851;DHT22;1433;49.976;8.342;2023-02-01T02:09:25;5.40;99.90
2851;DHT22;1433;49.976;8.342;2023-02-01T02:11:51;5.40;99.90
2851;DHT22;1433;49.976;8.342;2023-02-01T02:14:20;5.50;99.90
2851;DHT22;1433;49.976;8.342;2023-02-01T02:19:49;5.40;99.90
2851;DHT22;1433;49.976;8.342;2023-02-01T02:34:04;5.40;99.90
2851;DHT22;1433;49.976;8.342;2023-02-01T02:36:55;5.50;99.90
2851;DHT22;1433;49.976;8.342;2023-02-01T02:45:30;5.50;99.90
2851;DHT22;1433;49.976;8.342;2023-02-01T02:48:30;5.50;99.90
2851;DHT22;1433;49.976;8.342;2023-02-01T02:51:23;5.50;99.90
2851;DHT22;1433;49.976;8.342;2023-02-01T02:54:22;5.50;99.90
2851;DHT22;1433;49.976;8.342;2023-02-01T02:57:25;5.50;99.90
2851;DHT22;1433;49.976;8.342;2023-02-01T03:00:15;5.50;99.90
2851;DHT22;1433;49.976;8.342;2023-02-01T03:03:01;5.50;99.90
2851;DHT22;1433;49.976;8.342;2023-02-01T03:05:48;5.50;99.90
2851;DHT22;1433;49.976;8.342;2023-02-01T03:08:21;5.50;99.90
2851;DHT22;1433;49.976;8.342;2023-02-01T03:10:55;5.50;99.90
2851;DHT22;1433;49.976;8.342;2023-02-01T03:22:06;5.50;99.90
2851;DHT22;1433;49.976;8.342;2023-02-01T03:32:55;5.50;99.90
2851;DHT22;1433;49.976;8.342;2023-02-01T03:35:30;5.50;99.90
2851;DHT22;1433;49.976;8.342;2023-02-01T03:44:26;5.70;99.90
2851;DHT22;1433;49.976;8.342;2023-02-01T03:47:08;5.60;99.90
2851;DHT22;1433;49.976;8.342;2023-02-01T03:49:40;5.60;99.90
2851;DHT22;1433;49.976;8.342;2023-02-01T03:52:18;5.50;99.90
2851;DHT22;1433;49.976;8.342;2023-02-01T03:54:44;5.50;99.90
2851;DHT22;1433;49.976;8.342;2023-02-01T03:57:13;5.50;99.90
2851;DHT22;1433;49.976;8.342;2023-02-01T03:59:42;5.50;99.90
2851;DHT22;1433;49.976;8.342;2023-02-01T04:02:12;5.50;99.90
2851;DHT22;1433;49.976;8.342;2023-02-01T04:04:40;5.50;99.90
2851;DHT22;1433;49.976;8.342;2023-02-01T04:07:08;5.50;99.90
2851;DHT22;1433;49.976;8.342;2023-02-01T04:09:35;5.40;99.90
2851;DHT22;1433;49.976;8.342;2023-02-01T04:12:01;5.50;99.90
2851;DHT22;1433;49.976;8.342;2023-02-01T04:14:28;5.50;99.90
2851;DHT22;1433;49.976;8.342;2023-02-01T04:16:54;5.50;99.90
2851;DHT22;1433;49.976;8.342;2023-02-01T04:19:20;5.50;99.90
2851;DHT22;1433;49.976;8.342;2023-02-01T04:21:46;5.60;99.90
2851;DHT22;1433;49.976;8.342;2023-02-01T04:24:13;5.60;99.90
2851;DHT22;1433;49.976;8.342;2023-02-01T04:26:39;5.60;99.90
2851;DHT22;1433;49.976;8.342;2023-02-01T04:29:05;5.70;99.90
2851;DHT22;1433;49.976;8.342;2023-02-01T04:31:33;5.70;99.90
2851;DHT22;1433;49.976;8.342;2023-02-01T04:34:01;5.70;99.90
2851;DHT22;1433;49.976;8.342;2023-02-01T04:36:27;5.70;99.90
2851;DHT22;1433;49.976;8.342;2023-02-01T04:38:56;5.70;99.90
2851;DHT22;1433;49.976;8.342;2023-02-01T04:41:22;5.70;99.90
2851;DHT22;1433;49.976;8.342;2023-02-01T04:43:50;5.70;99.90
2851;DHT22;1433;49.976;8.342;2023-02-01T04:46:18;5.70;99.90
2851;DHT22;1433;49.976;8.342;2023-02-01T04:48:44;5.70;99.90
2851;DHT22;1433;49.976;8.342;2023-02-01T04:51:10;5.80;99.90
2851;DHT22;1433;49.976;8.342;2023-02-01T04:53:37;5.80;99.90
2851;DHT22;1433;49.976;8.342;2023-02-01T04:56:04;5.90;99.90
2851;DHT22;1433;49.976;8.342;2023-02-01T04:58:30;5.90;99.90
2851;DHT22;1433;49.976;8.342;2023-02-01T05:00:57;6.00;99.90
2851;DHT22;1433;49.976;8.342;2023-02-01T05:03:23;6.00;99.90
2851;DHT22;1433;49.976;8.342;2023-02-01T05:05:49;6.00;99.90
2851;DHT22;1433;49.976;8.342;2023-02-01T05:08:16;6.00;99.90
2851;DHT22;1433;49.976;8.342;2023-02-01T05:10:42;5.90;99.90
2851;DHT22;1433;49.976;8.342;2023-02-01T05:13:09;6.00;99.90
2851;DHT22;1433;49.976;8.342;2023-02-01T05:15:55;6.00;99.90
2851;DHT22;1433;49.976;8.342;2023-02-01T05:18:21;6.00;99.90
2851;DHT22;1433;49.976;8.342;2023-02-01T05:20:47;6.00;99.90
2851;DHT22;1433;49.976;8.342;2023-02-01T05:23:13;6.00;99.90
2851;DHT22;1433;49.976;8.342;2023-02-01T05:25:39;6.00;99.90
2851;DHT22;1433;49.976;8.342;2023-02-01T05:28:06;6.10;99.90
2851;DHT22;1433;49.976;8.342;2023-02-01T05:30:32;6.10;99.90
2851;DHT22;1433;49.976;8.342;2023-02-01T05:33:01;6.10;99.90
2851;DHT22;1433;49.976;8.342;2023-02-01T05:35:28;6.10;99.90
2851;DHT22;1433;49.976;8.342;2023-02-01T05:37:54;6.00;99.90
2851;DHT22;1433;49.976;8.342;2023-02-01T05:40:20;6.00;99.90
2851;DHT22;1433;49.976;8.342;2023-02-01T05:42:47;5.90;99.90
2851;DHT22;1433;49.976;8.342;2023-02-01T05:45:14;5.90;99.90
2851;DHT22;1433;49.976;8.342;2023-02-01T05:47:40;5.90;99.90
2851;DHT22;1433;49.976;8.342;2023-02-01T05:50:07;5.80;99.90
2851;DHT22;1433;49.976;8.342;2023-02-01T05:52:34;5.80;99.90
2851;DHT22;1433;49.976;8.342;2023-02-01T05:55:00;5.80;99.90
2851;DHT22;1433;49.976;8.342;2023-02-01T05:57:26;5.70;99.90
2851;DHT22;1433;49.976;8.342;2023-02-01T05:59:52;5.60;99.90
2851;DHT22;1433;49.976;8.342;2023-02-01T06:02:19;5.60;99.90
2851;DHT22;1433;49.976;8.342;2023-02-01T06:04:46;5.60;99.90
2851;DHT22;1433;49.976;8.342;2023-02-01T06:07:12;5.60;99.90
2851;DHT22;1433;49.976;8.342;2023-02-01T06:09:38;5.60;99.90
2851;DHT22;1433;49.976;8.342;2023-02-01T06:12:05;5.60;99.90
2851;DHT22;1433;49.976;8.342;2023-02-01T06:14:32;5.60;99.90
2851;DHT22;1433;49.976;8.342;2023-02-01T06:16:58;5.50;99.90
2851;DHT22;1433;49.976;8.342;2023-02-01T06:19:25;5.50;99.90
2851;DHT22;1433;49.976;8.342;2023-02-01T06:21:51;5.50;99.90
2851;DHT22;1433;49.976;8.342;2023-02-01T06:24:17;5.60;99.90
2851;DHT22;1433;49.976;8.342;2023-02-01T06:26:44;5.60;99.90
2851;DHT22;1433;49.976;8.342;2023-02-01T06:29:11;5.60;99.90
2851;DHT22;1433;49.976;8.342;2023-02-01T06:31:38;5.60;99.90
2851;DHT22;1433;49.976;8.342;2023-02-01T06:34:05;5.70;99.90
2851;DHT22;1433;49.976;8.342;2023-02-01T06:36:32;5.70;99.90
2851;DHT22;1433;49.976;8.342;2023-02-01T06:38:58;5.70;99.90
2851;DHT22;1433;49.976;8.342;2023-02-01T06:41:26;5.70;99.90
2851;DHT22;1433;49.976;8.342;2023-02-01T06:43:52;5.80;99.90
2851;DHT22;1433;49.976;8.342;2023-02-01T06:46:18;5.70;99.90
2851;DHT22;1433;49.976;8.342;2023-02-01T06:48:45;5.60;99.90
2851;DHT22;1433;49.976;8.342;2023-02-01T06:51:22;5.70;99.90
2851;DHT22;1433;49.976;8.342;2023-02-01T06:53:51;5.70;99.90
2851;DHT22;1433;49.976;8.342;2023-02-01T06:56:18;5.70;99.90
2851;DHT22;1433;49.976;8.342;2023-02-01T06:58:44;5.70;99.90
2851;DHT22;1433;49.976;8.342;2023-02-01T07:01:11;5.70;99.90
2851;DHT22;1433;49.976;8.342;2023-02-01T07:03:38;5.70;99.90
2851;DHT22;1433;49.976;8.342;2023-02-01T07:06:05;5.70;99.90
2851;DHT22;1433;49.976;8.342;2023-02-01T07:08:35;5.70;99.90
2851;DHT22;1433;49.976;8.342;2023-02-01T07:11:04;5.70;99.90
2851;DHT22;1433;49.976;8.342;2023-02-01T07:13:33;5.70;99.90
2851;DHT22;1433;49.976;8.342;2023-02-01T07:16:05;5.60;99.90
2851;DHT22;1433;49.976;8.342;2023-02-01T07:18:32;5.60;99.90
2851;DHT22;1433;49.976;8.342;2023-02-01T07:20:59;5.70;99.90
2851;DHT22;1433;49.976;8.342;2023-02-01T07:23:26;5.70;99.90
2851;DHT22;1433;49.976;8.342;2023-02-01T07:25:54;5.70;99.90
2851;DHT22;1433;49.976;8.342;2023-02-01T07:28:23;5.70;99.90
2851;DHT22;1433;49.976;8.342;2023-02-01T07:30:50;5.80;99.90
2851;DHT22;1433;49.976;8.342;2023-02-01T07:33:19;5.70;99.90
2851;DHT22;1433;49.976;8.342;2023-02-01T07:35:48;5.70;99.90
2851;DHT22;1433;49.976;8.342;2023-02-01T07:38:15;5.70;99.90
2851;DHT22;1433;49.976;8.342;2023-02-01T07:40:42;5.80;99.90
2851;DHT22;1433;49.976;8.342;2023-02-01T07:43:08;5.80;99.90
2851;DHT22;1433;49.976;8.342;2023-02-01T07:45:35;5.80;99.90
2851;DHT22;1433;49.976;8.342;2023-02-01T07:48:03;5.80;99.90
2851;DHT22;1433;49.976;8.342;2023-02-01T07:50:30;5.80;99.90
2851;DHT22;1433;49.976;8.342;2023-02-01T07:53:03;5.90;99.90
2851;DHT22;1433;49.976;8.342;2023-02-01T07:55:27;5.90;99.90
2851;DHT22;1433;49.976;8.342;2023-02-01T07:57:58;5.90;99.90
2851;DHT22;1433;49.976;8.342;2023-02-01T08:00:25;5.90;99.90
2851;DHT22;1433;49.976;8.342;2023-02-01T08:03:10;6.00;99.90
2851;DHT22;1433;49.976;8.342;2023-02-01T08:05:37;6.00;99.90
2851;DHT22;1433;49.976;8.342;2023-02-01T08:08:03;6.10;99.90
2851;DHT22;1433;49.976;8.342;2023-02-01T08:10:30;6.10;99.90
2851;DHT22;1433;49.976;8.342;2023-02-01T08:13:00;6.20;99.90
2851;DHT22;1433;49.976;8.342;2023-02-01T08:15:29;6.30;99.90
2851;DHT22;1433;49.976;8.342;2023-02-01T08:17:56;6.30;99.90
2851;DHT22;1433;49.976;8.342;2023-02-01T08:20:23;6.40;99.90
2851;DHT22;1433;49.976;8.342;2023-02-01T08:22:50;6.40;99.90
2851;DHT22;1433;49.976;8.342;2023-02-01T08:25:16;6.50;99.90
2851;DHT22;1433;49.976;8.342;2023-02-01T08:27:44;6.40;99.90
2851;DHT22;1433;49.976;8.342;2023-02-01T08:30:11;6.50;99.90
2851;DHT22;1433;49.976;8.342;2023-02-01T08:32:38;6.50;99.90
2851;DHT22;1433;49.976;8.342;2023-02-01T08:35:05;6.50;99.90
2851;DHT22;1433;49.976;8.342;2023-02-01T08:37:34;6.60;99.90
2851;DHT22;1433;49.976;8.342;2023-02-01T08:40:03;6.70;99.90
2851;DHT22;1433;49.976;8.342;2023-02-01T08:42:33;6.80;99.90
2851;DHT22;1433;49.976;8.342;2023-02-01T08:45:28;6.90;99.90
2851;DHT22;1433;49.976;8.342;2023-02-01T08:47:58;6.90;99.90
2851;DHT22;1433;49.976;8.342;2023-02-01T08:50:25;6.90;99.90
2851;DHT22;1433;49.976;8.342;2023-02-01T08:52:52;6.90;99.90
2851;DHT22;1433;49.976;8.342;2023-02-01T08:55:19;6.90;99.90
2851;DHT22;1433;49.976;8.342;2023-02-01T08:57:45;7.00;99.90
2851;DHT22;1433;49.976;8.342;2023-02-01T09:00:14;7.00;99.90
2851;DHT22;1433;49.976;8.342;2023-02-01T09:02:42;7.00;99.90
2851;DHT22;1433;49.976;8.342;2023-02-01T09:05:09;7.00;99.90
2851;DHT22;1433;49.976;8.342;2023-02-01T09:07:37;7.10;99.90
2851;DHT22;1433;49.976;8.342;2023-02-01T09:10:04;7.00;99.90
2851;DHT22;1433;49.976;8.342;2023-02-01T09:12:32;7.00;99.90
2851;DHT22;1433;49.976;8.342;2023-02-01T09:15:00;6.90;99.90
2851;DHT22;1433;49.976;8.342;2023-02-01T09:17:27;6.90;99.90
2851;DHT22;1433;49.976;8.342;2023-02-01T09:19:55;6.90;99.90
2851;DHT22;1433;49.976;8.342;2023-02-01T09:22:21;7.00;99.90
2851;DHT22;1433;49.976;8.342;2023-02-01T09:24:48;7.10;99.90
2851;DHT22;1433;49.976;8.342;2023-02-01T09:27:14;7.20;99.90
2851;DHT22;1433;49.976;8.342;2023-02-01T09:29:40;7.20;99.90
2851;DHT22;1433;49.976;8.342;2023-02-01T09:32:07;7.30;99.90
2851;DHT22;1433;49.976;8.342;2023-02-01T09:34:33;7.30;99.90
2851;DHT22;1433;49.976;8.342;2023-02-01T09:37:00;7.40;99.90
2851;DHT22;1433;49.976;8.342;2023-02-01T09:39:26;7.40;99.90
2851;DHT22;1433;49.976;8.342;2023-02-01T09:41:59;7.40;99.90
2851;DHT22;1433;49.976;8.342;2023-02-01T09:47:20;7.50;99.90
2851;DHT22;1433;49.976;8.342;2023-02-01T09:50:02;7.50;99.90
2851;DHT22;1433;49.976;8.342;2023-02-01T09:52:38;7.60;99.90
2851;DHT22;1433;49.976;8.342;2023-02-01T09:55:26;7.60;99.90
2851;DHT22;1433;49.976;8.342;2023-02-01T09:58:14;7.60;99.90
2851;DHT22;1433;49.976;8.342;2023-02-01T10:00:51;7.70;99.90
2851;DHT22;1433;49.976;8.342;2023-02-01T10:03:20;7.70;99.90
2851;DHT22;1433;49.976;8.342;2023-02-01T10:12:21;7.80;99.90
2851;DHT22;1433;49.976;8.342;2023-02-01T10:17:54;7.80;99.90
2851;DHT22;1433;49.976;8.342;2023-02-01T10:26:23;7.90;99.90
2851;DHT22;1433;49.976;8.342;2023-02-01T10:28:57;7.90;99.90
2851;DHT22;1433;49.976;8.342;2023-02-01T10:31:27;7.90;99.90
2851;DHT22;1433;49.976;8.342;2023-02-01T10:33:58;7.90;99.90
2851;DHT22;1433;49.976;8.342;2023-02-01T10:36:32;7.90;99.90
2851;DHT22;1433;49.976;8.342;2023-02-01T10:39:03;7.90;99.90
2851;DHT22;1433;49.976;8.342;2023-02-01T10:41:36;7.90;99.90
2851;DHT22;1433;49.976;8.342;2023-02-01T10:44:17;7.90;99.90
2851;DHT22;1433;49.976;8.342;2023-02-01T10:46:45;7.90;99.90
2851;DHT22;1433;49.976;8.342;2023-02-01T10:49:22;7.90;99.90
2851;DHT22;1433;49.976;8.342;2023-02-01T10:51:58;7.90;99.90
2851;DHT22;1433;49.976;8.342;2023-02-01T10:54:36;7.90;99.90
2851;DHT22;1433;49.976;8.342;2023-02-01T10:57:21;7.80;99.90
2851;DHT22;1433;49.976;8.342;2023-02-01T10:59:52;7.80;99.90
2851;DHT22;1433;49.976;8.342;2023-02-01T11:02:29;7.90;99.90
2851;DHT22;1433;49.976;8.342;2023-02-01T11:05:01;7.80;99.90
2851;DHT22;1433;49.976;8.342;2023-02-01T11:07:30;7.90;99.90
2851;DHT22;1433;49.976;8.342;2023-02-01T11:09:57;7.70;99.90
2851;DHT22;1433;49.976;8.342;2023-02-01T11:12:35;7.70;99.90
2851;DHT22;1433;49.976;8.342;2023-02-01T11:15:22;7.70;99.90
2851;DHT22;1433;49.976;8.342;2023-02-01T11:17:51;7.70;99.90
2851;DHT22;1433;49.976;8.342;2023-02-01T11:20:37;7.70;99.90
2851;DHT22;1433;49.976;8.342;2023-02-01T11:23:00;7.70;99.90
2851;DHT22;1433;49.976;8.342;2023-02-01T11:25:27;7.80;99.90
2851;DHT22;1433;49.976;8.342;2023-02-01T11:27:56;7.70;99.90
2851;DHT22;1433;49.976;8.342;2023-02-01T11:30:38;7.80;99.90
2851;DHT22;1433;49.976;8.342;2023-02-01T11:33:12;7.80;99.90
2851;DHT22;1433;49.976;8.342;2023-02-01T11:35:42;8.00;99.90
2851;DHT22;1433;49.976;8.342;2023-02-01T11:38:29;8.00;99.90
2851;DHT22;1433;49.976;8.342;2023-02-01T11:41:14;8.00;99.90
2851;DHT22;1433;49.976;8.342;2023-02-01T11:43:58;8.00;99.90
2851;DHT22;1433;49.976;8.342;2023-02-01T11:46:31;8.10;99.90
2851;DHT22;1433;49.976;8.342;2023-02-01T11:49:25;8.10;99.90
2851;DHT22;1433;49.976;8.342;2023-02-01T11:52:10;7.90;99.90
2851;DHT22;1433;49.976;8.342;2023-02-01T11:54:57;8.10;99.90
2851;DHT22;1433;49.976;8.342;2023-02-01T12:03:18;8.10;99.90
2851;DHT22;1433;49.976;8.342;2023-02-01T12:32:42;8.10;99.90
2851;DHT22;1433;49.976;8.342;2023-02-01T12:37:52;8.40;99.90
2851;DHT22;1433;49.976;8.342;2023-02-01T12:43:23;8.60;99.90
2851;DHT22;1433;49.976;8.342;2023-02-01T12:46:24;8.50;1.00
2851;DHT22;1433;49.976;8.342;2023-02-01T12:49:15;8.50;1.00
2851;DHT22;1433;49.976;8.342;2023-02-01T12:51:47;8.70;1.00
2851;DHT22;1433;49.976;8.342;2023-02-01T12:56:54;8.70;1.00
2851;DHT22;1433;49.976;8.342;2023-02-01T12:59:33;8.60;1.00
2851;DHT22;1433;49.976;8.342;2023-02-01T13:05:18;8.60;99.90
2851;DHT22;1433;49.976;8.342;2023-02-01T13:08:02;8.40;1.00
2851;DHT22;1433;49.976;8.342;2023-02-01T13:10:51;8.50;1.00
2851;DHT22;1433;49.976;8.342;2023-02-01T13:16:16;8.40;1.00
2851;DHT22;1433;49.976;8.342;2023-02-01T13:18:49;8.30;1.00
2851;DHT22;1433;49.976;8.342;2023-02-01T13:21:21;8.30;1.00
2851;DHT22;1433;49.976;8.342;2023-02-01T13:23:52;8.40;1.00
2851;DHT22;1433;49.976;8.342;2023-02-01T13:26:19;8.70;1.00
2851;DHT22;1433;49.976;8.342;2023-02-01T13:28:58;8.80;1.00
2851;DHT22;1433;49.976;8.342;2023-02-01T13:34:38;8.60;57.50
2851;DHT22;1433;49.976;8.342;2023-02-01T13:43:17;9.50;99.90
2851;DHT22;1433;49.976;8.342;2023-02-01T13:45:52;10.20;99.90
2851;DHT22;1433;49.976;8.342;2023-02-01T13:48:22;10.50;46.20
2851;DHT22;1433;49.976;8.342;2023-02-01T13:50:54;11.00;99.90
2851;DHT22;1433;49.976;8.342;2023-02-01T13:53:30;10.40;99.90
2851;DHT22;1433;49.976;8.342;2023-02-01T13:56:05;10.10;99.90
2851;DHT22;1433;49.976;8.342;2023-02-01T14:04:02;9.40;99.90
2851;DHT22;1433;49.976;8.342;2023-02-01T14:19:34;8.50;1.00
2851;DHT22;1433;49.976;8.342;2023-02-01T14:24:52;8.50;99.90
2851;DHT22;1433;49.976;8.342;2023-02-01T14:27:27;8.50;99.90
2851;DHT22;1433;49.976;8.342;2023-02-01T14:29:58;8.50;99.90
2851;DHT22;1433;49.976;8.342;2023-02-01T14:32:35;8.50;99.90
2851;DHT22;1433;49.976;8.342;2023-02-01T14:35:24;8.50;99.90
2851;DHT22;1433;49.976;8.342;2023-02-01T14:37:53;8.60;99.90
2851;DHT22;1433;49.976;8.342;2023-02-01T14:40:27;8.90;99.90
2851;DHT22;1433;49.976;8.342;2023-02-01T14:42:54;8.90;99.90
2851;DHT22;1433;49.976;8.342;2023-02-01T14:50:46;8.50;99.90
2851;DHT22;1433;49.976;8.342;2023-02-01T14:53:21;8.50;99.90
2851;DHT22;1433;49.976;8.342;2023-02-01T15:01:34;8.40;99.90
2851;DHT22;1433;49.976;8.342;2023-02-01T15:04:13;8.40;99.90
2851;DHT22;1433;49.976;8.342;2023-02-01T15:06:48;8.30;99.90
2851;DHT22;1433;49.976;8.342;2023-02-01T15:09:35;8.30;99.90
2851;DHT22;1433;49.976;8.342;2023-02-01T15:15:02;8.30;99.90
2851;DHT22;1433;49.976;8.342;2023-02-01T15:17:31;8.30;99.90
2851;DHT22;1433;49.976;8.342;2023-02-01T15:22:53;8.20;99.90
2851;DHT22;1433;49.976;8.342;2023-02-01T15:25:30;8.30;99.90
2851;DHT22;1433;49.976;8.342;2023-02-01T15:28:05;8.30;99.90
2851;DHT22;1433;49.976;8.342;2023-02-01T15:30:34;8.30;99.90
2851;DHT22;1433;49.976;8.342;2023-02-01T15:35:45;8.40;99.90
2851;DHT22;1433;49.976;8.342;2023-02-01T15:38:31;8.40;99.90
2851;DHT22;1433;49.976;8.342;2023-02-01T15:43:42;8.40;99.90
2851;DHT22;1433;49.976;8.342;2023-02-01T15:46:22;8.40;99.90
2851;DHT22;1433;49.976;8.342;2023-02-01T15:49:03;8.40;99.90
2851;DHT22;1433;49.976;8.342;2023-02-01T15:51:31;8.30;99.90
2851;DHT22;1433;49.976;8.342;2023-02-01T15:54:07;8.30;99.90
2851;DHT22;1433;49.976;8.342;2023-02-01T15:56:38;8.30;99.90
2851;DHT22;1433;49.976;8.342;2023-02-01T15:59:15;8.30;99.90
2851;DHT22;1433;49.976;8.342;2023-02-01T16:01:49;8.30;99.90
2851;DHT22;1433;49.976;8.342;2023-02-01T16:04:20;8.30;99.90
2851;DHT22;1433;49.976;8.342;2023-02-01T16:06:56;8.30;99.90
2851;DHT22;1433;49.976;8.342;2023-02-01T16:09:39;8.30;99.90
2851;DHT22;1433;49.976;8.342;2023-02-01T16:15:11;8.20;99.90
2851;DHT22;1433;49.976;8.342;2023-02-01T16:17:38;8.20;99.90
2851;DHT22;1433;49.976;8.342;2023-02-01T16:20:05;8.20;99.90
2851;DHT22;1433;49.976;8.342;2023-02-01T16:22:32;8.30;99.90
2851;DHT22;1433;49.976;8.342;2023-02-01T16:24:59;8.30;99.90
2851;DHT22;1433;49.976;8.342;2023-02-01T16:27:25;8.30;99.90
2851;DHT22;1433;49.976;8.342;2023-02-01T16:29:52;8.30;99.90
2851;DHT22;1433;49.976;8.342;2023-02-01T16:32:21;8.30;99.90
2851;DHT22;1433;49.976;8.342;2023-02-01T16:34:49;8.30;99.90
2851;DHT22;1433;49.976;8.342;2023-02-01T16:37:19;8.20;99.90
2851;DHT22;1433;49.976;8.342;2023-02-01T16:39:46;8.20;99.90
2851;DHT22;1433;49.976;8.342;2023-02-01T16:42:13;8.20;99.90
2851;DHT22;1433;49.976;8.342;2023-02-01T16:44:41;8.10;99.90
2851;DHT22;1433;49.976;8.342;2023-02-01T16:47:16;8.10;99.90
2851;DHT22;1433;49.976;8.342;2023-02-01T16:49:44;8.00;99.90
2851;DHT22;1433;49.976;8.342;2023-02-01T16:52:17;7.90;99.90
2851;DHT22;1433;49.976;8.342;2023-02-01T16:54:46;7.90;99.90
2851;DHT22;1433;49.976;8.342;2023-02-01T16:57:16;7.80;99.90
2851;DHT22;1433;49.976;8.342;2023-02-01T16:59:44;7.80;99.90
2851;DHT22;1433;49.976;8.342;2023-02-01T17:02:15;7.70;99.90
2851;DHT22;1433;49.976;8.342;2023-02-01T17:04:47;7.70;99.90
2851;DHT22;1433;49.976;8.342;2023-02-01T17:07:18;7.70;99.90
2851;DHT22;1433;49.976;8.342;2023-02-01T17:09:50;7.70;99.90
2851;DHT22;1433;49.976;8.342;2023-02-01T17:14:52;7.70;99.90
2851;DHT22;1433;49.976;8.342;2023-02-01T17:17:21;7.70;99.90
2851;DHT22;1433;49.976;8.342;2023-02-01T17:19:50;7.70;99.90
2851;DHT22;1433;49.976;8.342;2023-02-01T17:22:22;7.70;99.90
2851;DHT22;1433;49.976;8.342;2023-02-01T17:24:49;7.70;99.90
2851;DHT22;1433;49.976;8.342;2023-02-01T17:27:20;7.60;99.90
2851;DHT22;1433;49.976;8.342;2023-02-01T17:29:51;7.60;99.90
2851;DHT22;1433;49.976;8.342;2023-02-01T17:32:27;7.60;99.90
2851;DHT22;1433;49.976;8.342;2023-02-01T17:34:52;7.60;99.90
2851;DHT22;1433;49.976;8.342;2023-02-01T17:37:25;7.60;99.90
2851;DHT22;1433;49.976;8.342;2023-02-01T17:39:58;7.60;99.90
2851;DHT22;1433;49.976;8.342;2023-02-01T17:42:28;7.60;99.90
2851;DHT22;1433;49.976;8.342;2023-02-01T17:45:02;7.60;99.90
2851;DHT22;1433;49.976;8.342;2023-02-01T17:47:27;7.60;99.90
2851;DHT22;1433;49.976;8.342;2023-02-01T17:49:54;7.50;61.50
2851;DHT22;1433;49.976;8.342;2023-02-01T17:52:26;7.50;99.90
2851;DHT22;1433;49.976;8.342;2023-02-01T17:54:56;7.30;99.90
2851;DHT22;1433;49.976;8.342;2023-02-01T17:57:23;7.30;99.90
2851;DHT22;1433;49.976;8.342;2023-02-01T17:59:52;7.10;99.90
2851;DHT22;1433;49.976;8.342;2023-02-01T18:02:26;6.90;99.90
2851;DHT22;1433;49.976;8.342;2023-02-01T18:04:50;6.80;99.90
2851;DHT22;1433;49.976;8.342;2023-02-01T18:07:17;6.80;99.90
2851;DHT22;1433;49.976;8.342;2023-02-01T18:09:48;6.70;99.90
2851;DHT22;1433;49.976;8.342;2023-02-01T18:12:29;6.80;99.90
2851;DHT22;1433;49.976;8.342;2023-02-01T18:14:52;7.00;99.90
2851;DHT22;1433;49.976;8.342;2023-02-01T18:17:24;7.10;99.90
2851;DHT22;1433;49.976;8.342;2023-02-01T18:19:52;7.10;99.90
2851;DHT22;1433;49.976;8.342;2023-02-01T18:22:27;7.10;99.90
2851;DHT22;1433;49.976;8.342;2023-02-01T18:24:56;7.10;99.90
2851;DHT22;1433;49.976;8.342;2023-02-01T18:27:24;7.00;99.90
2851;DHT22;1433;49.976;8.342;2023-02-01T18:29:54;7.10;99.90
2851;DHT22;1433;49.976;8.342;2023-02-01T18:32:24;7.00;99.90
2851;DHT22;1433;49.976;8.342;2023-02-01T18:34:51;7.00;99.90
2851;DHT22;1433;49.976;8.342;2023-02-01T18:37:18;7.00;99.90
2851;DHT22;1433;49.976;8.342;2023-02-01T18:39:58;7.00;99.90
2851;DHT22;1433;49.976;8.342;2023-02-01T18:42:24;7.10;99.90
2851;DHT22;1433;49.976;8.342;2023-02-01T18:44:54;7.10;99.90
2851;DHT22;1433;49.976;8.342;2023-02-01T18:47:21;7.20;99.90
2851;DHT22;1433;49.976;8.342;2023-02-01T18:49:52;7.30;99.90
2851;DHT22;1433;49.976;8.342;2023-02-01T18:52:37;7.30;99.90
2851;DHT22;1433;49.976;8.342;2023-02-01T18:54:59;7.30;99.90
2851;DHT22;1433;49.976;8.342;2023-02-01T18:57:36;7.30;99.90
2851;DHT22;1433;49.976;8.342;2023-02-01T19:00:10;7.30;99.90
2851;DHT22;1433;49.976;8.342;2023-02-01T19:02:39;7.30;99.90
2851;DHT22;1433;49.976;8.342;2023-02-01T19:05:12;7.30;99.90
2851;DHT22;1433;49.976;8.342;2023-02-01T19:07:44;7.30;99.90
2851;DHT22;1433;49.976;8.342;2023-02-01T19:10:16;7.30;99.90
2851;DHT22;1433;49.976;8.342;2023-02-01T19:12:59;7.30;99.90
2851;DHT22;1433;49.976;8.342;2023-02-01T19:15:28;7.30;99.90
2851;DHT22;1433;49.976;8.342;2023-02-01T19:17:54;7.30;99.90
2851;DHT22;1433;49.976;8.342;2023-02-01T19:20:23;7.30;99.90
2851;DHT22;1433;49.976;8.342;2023-02-01T19:22:51;7.30;99.90
2851;DHT22;1433;49.976;8.342;2023-02-01T19:25:21;7.40;99.90
2851;DHT22;1433;49.976;8.342;2023-02-01T19:27:49;7.30;99.90
2851;DHT22;1433;49.976;8.342;2023-02-01T19:30:18;7.40;99.90